createdAt,value
2019-01-31T00:00:59.717Z,0.80
2019-01-31T00:04:07.747Z,0.80
2019-01-31T00:07:33.376Z,0.80
2019-01-31T00:10:49.577Z,0.80
2019-01-31T00:13:27.004Z,0.80
2019-01-31T00:16:44.137Z,0.80
2019-01-31T00:19:45.470Z,0.80
2019-01-31T00:22:35.685Z,0.80
2019-01-31T00:25:23.508Z,0.80
2019-01-31T00:28:40.499Z,0.80
2019-01-31T00:31:48.662Z,0.80
2019-01-31T00:34:50.677Z,0.80
2019-01-31T00:37:45.303Z,0.80
2019-01-31T00:41:17.701Z,0.70
2019-01-31T00:43:55.958Z,0.70
2019-01-31T00:46:45.635Z,0.70
2019-01-31T00:49:45.862Z,0.80
2019-01-31T00:53:00.364Z,0.80
2019-01-31T00:56:11.750Z,0.80
2019-01-31T00:59:18.648Z,0.80
2019-01-31T01:02:51.165Z,0.80
2019-01-31T01:05:49.742Z,0.80
2019-01-31T01:08:34.287Z,0.80
2019-01-31T01:11:44.043Z,0.80
2019-01-31T01:14:51.967Z,0.80
2019-01-31T01:17:35.765Z,0.80
2019-01-31T01:20:28.090Z,0.80
2019-01-31T01:23:38.589Z,0.80
2019-01-31T01:26:50.467Z,0.80
2019-01-31T01:30:09.707Z,0.80
2019-01-31T01:33:20.578Z,0.80
2019-01-31T01:36:08.692Z,0.80
2019-01-31T01:39:18.830Z,0.80
2019-01-31T01:42:28.290Z,0.80
2019-01-31T01:45:43.301Z,0.80
2019-01-31T01:48:41.659Z,0.80
2019-01-31T01:51:47.276Z,0.80
2019-01-31T01:54:58.341Z,0.80
2019-01-31T01:57:51.786Z,0.80
2019-01-31T02:00:50.247Z,0.80
2019-01-31T02:03:43.469Z,0.80
2019-01-31T02:06:59.448Z,0.80
2019-01-31T02:10:08.962Z,0.80
2019-01-31T02:13:35.203Z,0.80
2019-01-31T02:16:38.495Z,0.80
2019-01-31T02:19:44.395Z,0.80
2019-01-31T02:22:31.026Z,0.80
2019-01-31T02:25:25.330Z,0.80
2019-01-31T02:28:46.505Z,0.70
2019-01-31T02:31:59.048Z,0.80
2019-01-31T02:34:40.273Z,0.80
2019-01-31T02:37:55.425Z,0.80
2019-01-31T02:41:02.589Z,0.70
2019-01-31T02:43:51.567Z,0.70
2019-01-31T02:46:42.951Z,0.70
2019-01-31T02:49:41.766Z,0.70
2019-01-31T02:52:50.155Z,0.70
2019-01-31T02:55:34.318Z,0.80
2019-01-31T02:58:38.633Z,0.70
2019-01-31T03:01:40.158Z,0.80
2019-01-31T03:04:38.661Z,0.70
2019-01-31T03:07:41.304Z,0.70
2019-01-31T03:10:34.094Z,0.70
2019-01-31T03:13:27.605Z,0.70
2019-01-31T03:16:47.926Z,0.70
2019-01-31T03:19:57.464Z,0.70
2019-01-31T03:23:09.490Z,0.70
2019-01-31T03:26:03.478Z,0.70
2019-01-31T03:29:19.666Z,0.70
2019-01-31T03:32:08.984Z,0.70
2019-01-31T03:34:52.844Z,0.70
2019-01-31T03:37:49.919Z,0.70
2019-01-31T03:40:54.952Z,0.70
2019-01-31T03:43:53.302Z,0.70
2019-01-31T03:46:57.612Z,0.70
2019-01-31T03:49:51.075Z,0.70
2019-01-31T03:52:55.567Z,0.70
2019-01-31T03:55:53.957Z,0.70
2019-01-31T03:58:38.519Z,0.70
2019-01-31T04:01:37.743Z,0.70
2019-01-31T04:04:28.334Z,0.70
2019-01-31T04:06:58.635Z,0.60
2019-01-31T04:09:28.868Z,0.60
2019-01-31T04:11:59.128Z,0.70
2019-01-31T04:14:29.502Z,0.70
2019-01-31T04:16:59.729Z,0.70
2019-01-31T04:19:29.989Z,0.70
2019-01-31T04:22:00.180Z,0.70
2019-01-31T04:24:30.461Z,0.60
2019-01-31T04:27:00.729Z,0.60
2019-01-31T04:29:30.962Z,0.60
2019-01-31T04:32:01.208Z,0.60
2019-01-31T04:34:31.368Z,0.70
2019-01-31T04:37:01.524Z,0.70
2019-01-31T04:39:31.694Z,0.70
2019-01-31T04:42:01.765Z,0.60
2019-01-31T04:44:31.987Z,0.60
2019-01-31T04:47:02.175Z,0.60
2019-01-31T04:49:32.352Z,0.70
2019-01-31T04:52:02.616Z,0.70
2019-01-31T04:54:32.823Z,0.70
2019-01-31T04:57:03.165Z,0.70
2019-01-31T04:59:33.450Z,0.70
2019-01-31T05:02:03.611Z,0.70
2019-01-31T05:04:33.788Z,0.70
2019-01-31T05:07:03.929Z,0.70
2019-01-31T05:09:34.156Z,0.70
2019-01-31T05:12:04.417Z,0.70
2019-01-31T05:14:34.601Z,0.70
2019-01-31T05:17:04.905Z,0.70
2019-01-31T05:19:35.070Z,0.70
2019-01-31T05:22:05.262Z,0.70
2019-01-31T05:24:35.398Z,0.70
2019-01-31T05:27:05.627Z,0.60
2019-01-31T05:29:35.856Z,0.60
2019-01-31T05:32:06.023Z,0.60
2019-01-31T05:34:36.358Z,0.60
2019-01-31T05:37:06.582Z,0.60
2019-01-31T05:39:36.775Z,0.60
2019-01-31T05:42:07.035Z,0.60
2019-01-31T05:44:37.415Z,0.60
2019-01-31T05:47:07.619Z,0.60
2019-01-31T05:49:37.889Z,0.60
2019-01-31T05:52:08.130Z,0.60
2019-01-31T05:54:38.405Z,0.60
2019-01-31T05:57:08.637Z,0.60
2019-01-31T05:59:38.792Z,0.60
2019-01-31T06:02:08.950Z,0.60
2019-01-31T06:04:39.159Z,0.60
2019-01-31T06:07:11.253Z,0.60
2019-01-31T06:09:41.359Z,0.60
2019-01-31T06:12:11.611Z,0.60
2019-01-31T06:14:41.809Z,0.50
2019-01-31T06:17:13.003Z,0.60
2019-01-31T06:19:43.256Z,0.50
2019-01-31T06:22:13.529Z,0.60
2019-01-31T06:24:43.749Z,0.60
2019-01-31T06:27:13.998Z,0.50
2019-01-31T06:29:44.251Z,0.60
2019-01-31T06:32:14.435Z,0.60
2019-01-31T06:34:44.732Z,0.60
2019-01-31T06:37:14.960Z,0.60
2019-01-31T06:39:45.205Z,0.60
2019-01-31T06:42:15.547Z,0.60
2019-01-31T06:44:45.764Z,0.60
2019-01-31T06:47:15.920Z,0.60
2019-01-31T06:49:46.166Z,0.60
2019-01-31T06:52:16.540Z,0.60
2019-01-31T06:54:46.766Z,0.60
2019-01-31T06:57:17.010Z,0.60
2019-01-31T06:59:47.191Z,0.60
2019-01-31T07:02:17.640Z,0.60
2019-01-31T07:04:47.846Z,0.60
2019-01-31T07:07:18.097Z,0.70
2019-01-31T07:09:48.355Z,0.70
2019-01-31T07:12:18.530Z,0.70
2019-01-31T07:14:48.760Z,0.70
2019-01-31T07:17:19.004Z,0.70
2019-01-31T07:19:49.162Z,0.70
2019-01-31T07:22:19.383Z,0.70
2019-01-31T07:24:50.599Z,0.70
2019-01-31T07:27:20.817Z,0.70
2019-01-31T07:29:51.100Z,0.70
2019-01-31T07:32:21.378Z,0.80
2019-01-31T07:34:51.578Z,0.80
2019-01-31T07:37:21.771Z,0.80
2019-01-31T07:39:51.990Z,0.80
2019-01-31T07:42:22.276Z,0.70
2019-01-31T07:44:52.510Z,0.80
2019-01-31T07:47:22.657Z,0.80
2019-01-31T07:49:53.047Z,0.80
2019-01-31T07:52:23.244Z,0.80
2019-01-31T07:54:53.579Z,0.80
2019-01-31T07:57:23.869Z,0.80
2019-01-31T07:59:53.997Z,0.80
2019-01-31T08:02:24.399Z,0.80
2019-01-31T08:04:54.599Z,0.80
2019-01-31T08:07:24.906Z,0.80
2019-01-31T08:09:56.130Z,0.80
2019-01-31T08:12:26.566Z,0.80
2019-01-31T08:14:56.759Z,0.80
2019-01-31T08:17:26.919Z,0.80
2019-01-31T08:19:57.162Z,0.80
2019-01-31T08:22:27.403Z,0.80
2019-01-31T08:24:57.586Z,0.80
2019-01-31T08:27:27.930Z,0.80
2019-01-31T08:29:58.186Z,0.80
2019-01-31T08:32:28.565Z,0.80
2019-01-31T08:34:58.823Z,0.80
2019-01-31T08:37:29.075Z,0.80
2019-01-31T08:39:59.131Z,0.80
2019-01-31T08:42:29.462Z,0.80
2019-01-31T08:44:59.687Z,0.80
2019-01-31T08:47:29.842Z,0.90
2019-01-31T08:50:00.010Z,0.90
2019-01-31T08:52:30.197Z,0.80
2019-01-31T08:55:00.353Z,0.80
2019-01-31T08:57:30.696Z,0.90
2019-01-31T09:00:03.893Z,0.80
2019-01-31T09:02:35.213Z,0.90
2019-01-31T09:05:06.201Z,0.80
2019-01-31T09:07:36.595Z,0.80
2019-01-31T09:10:09.555Z,0.80
2019-01-31T09:12:39.977Z,0.80
2019-01-31T09:15:11.566Z,0.80
2019-01-31T09:17:41.894Z,0.80
2019-01-31T09:20:13.590Z,0.80
2019-01-31T09:23:39.353Z,0.80
2019-01-31T09:26:44.757Z,0.80
2019-01-31T09:29:50.690Z,0.80
2019-01-31T09:32:33.317Z,0.80
2019-01-31T09:35:15.326Z,0.80
2019-01-31T09:38:29.987Z,0.80
2019-01-31T09:41:32.255Z,0.90
2019-01-31T09:44:48.261Z,0.90
2019-01-31T09:48:09.875Z,0.90
2019-01-31T09:51:11.121Z,0.90
2019-01-31T09:54:12.971Z,0.90
2019-01-31T09:57:15.127Z,0.90
2019-01-31T10:00:27.748Z,1.00
2019-01-31T10:03:31.146Z,1.00
2019-01-31T10:07:03.144Z,1.00
2019-01-31T10:10:00.852Z,1.00
2019-01-31T10:12:48.518Z,1.00
2019-01-31T10:16:26.548Z,1.00
2019-01-31T10:19:51.737Z,1.00
2019-01-31T10:22:58.962Z,1.00
2019-01-31T10:26:13.685Z,1.00
2019-01-31T10:29:42.723Z,1.00
2019-01-31T10:32:53.882Z,1.00
2019-01-31T10:35:49.719Z,1.00
2019-01-31T10:38:55.223Z,0.90
2019-01-31T10:41:55.146Z,0.90
2019-01-31T10:44:49.633Z,0.90
2019-01-31T10:48:05.535Z,0.90
2019-01-31T10:51:33.711Z,0.90
2019-01-31T10:54:21.985Z,0.90
2019-01-31T10:57:35.433Z,1.00
2019-01-31T11:00:43.530Z,1.00
2019-01-31T11:03:52.223Z,1.00
2019-01-31T11:06:49.297Z,1.10
2019-01-31T11:09:40.658Z,1.20
2019-01-31T11:12:39.862Z,1.30
2019-01-31T11:15:21.311Z,1.30
2019-01-31T11:18:07.118Z,1.30
2019-01-31T11:21:16.746Z,1.30
2019-01-31T11:24:26.608Z,1.30
2019-01-31T11:27:43.782Z,1.30
2019-01-31T11:30:44.030Z,1.20
2019-01-31T11:33:36.280Z,1.20
2019-01-31T11:36:38.544Z,1.20
2019-01-31T11:39:56.699Z,1.10
2019-01-31T11:42:44.606Z,1.10
2019-01-31T11:45:43.353Z,1.00
2019-01-31T11:48:41.862Z,1.00
2019-01-31T11:51:46.818Z,1.10
2019-01-31T11:55:13.374Z,1.10
2019-01-31T11:57:56.705Z,1.20
2019-01-31T12:00:27.487Z,1.20
2019-01-31T12:02:57.658Z,1.20
2019-01-31T12:05:27.797Z,1.20
2019-01-31T12:07:57.950Z,1.10
2019-01-31T12:10:28.119Z,1.10
2019-01-31T12:12:58.397Z,1.10
2019-01-31T12:15:28.501Z,1.10
2019-01-31T12:17:58.662Z,1.10
2019-01-31T12:20:28.818Z,1.00
2019-01-31T12:22:58.985Z,1.00
2019-01-31T12:25:29.213Z,1.00
2019-01-31T12:27:59.315Z,1.00
2019-01-31T12:30:29.778Z,1.00
2019-01-31T12:33:00.062Z,1.00
2019-01-31T12:35:30.151Z,1.00
2019-01-31T12:38:00.753Z,1.10
2019-01-31T12:40:30.886Z,1.00
2019-01-31T12:43:02.457Z,1.10
2019-01-31T12:45:32.715Z,1.10
2019-01-31T12:48:02.897Z,1.10
2019-01-31T12:50:33.091Z,1.10
2019-01-31T12:53:03.282Z,1.10
2019-01-31T12:55:33.693Z,1.10
2019-01-31T12:58:04.124Z,1.10
2019-01-31T13:00:34.231Z,1.10
2019-01-31T13:03:04.550Z,1.10
2019-01-31T13:05:34.697Z,1.20
2019-01-31T13:08:05.164Z,1.20
2019-01-31T13:10:35.298Z,1.20
2019-01-31T13:13:05.769Z,1.20
2019-01-31T13:15:35.957Z,1.20
2019-01-31T13:18:06.876Z,1.20
2019-01-31T13:20:37.918Z,1.20
2019-01-31T13:23:08.070Z,1.20
2019-01-31T13:25:38.178Z,1.20
2019-01-31T13:28:08.529Z,1.20
2019-01-31T13:30:38.659Z,1.20
2019-01-31T13:33:08.750Z,1.20
2019-01-31T13:35:38.930Z,1.20
2019-01-31T13:38:09.374Z,1.20
2019-01-31T13:40:39.439Z,1.20
2019-01-31T13:43:12.044Z,1.20
2019-01-31T13:45:42.557Z,1.20
2019-01-31T13:48:14.737Z,1.20
2019-01-31T13:50:44.877Z,1.20
2019-01-31T13:53:15.208Z,1.20
2019-01-31T13:55:45.395Z,1.10
2019-01-31T13:58:16.622Z,1.10
2019-01-31T14:00:47.737Z,1.10
2019-01-31T14:03:17.968Z,1.10
2019-01-31T14:05:48.119Z,1.10
2019-01-31T14:08:18.234Z,1.10
2019-01-31T14:10:48.361Z,1.10
2019-01-31T14:13:18.465Z,1.10
2019-01-31T14:15:48.553Z,1.10
2019-01-31T14:18:18.597Z,1.10
2019-01-31T14:20:48.825Z,1.10
2019-01-31T14:23:18.981Z,1.10
2019-01-31T14:25:49.303Z,1.10
2019-01-31T14:28:19.397Z,1.10
2019-01-31T14:30:49.587Z,1.10
2019-01-31T14:33:24.720Z,1.10
2019-01-31T14:35:57.902Z,1.10
2019-01-31T14:38:28.429Z,1.10
2019-01-31T14:40:58.585Z,1.10
2019-01-31T14:43:28.750Z,1.10
2019-01-31T14:45:58.984Z,1.10
2019-01-31T14:48:29.253Z,1.10
2019-01-31T14:50:59.434Z,1.10
2019-01-31T14:53:29.618Z,1.10
2019-01-31T14:55:59.851Z,1.10
2019-01-31T14:58:29.950Z,1.10
2019-01-31T15:01:00.084Z,1.10
2019-01-31T15:03:30.283Z,1.10
2019-01-31T15:06:00.523Z,1.10
2019-01-31T15:08:30.826Z,1.10
2019-01-31T15:11:00.982Z,1.20
2019-01-31T15:13:33.539Z,1.10
2019-01-31T15:16:03.743Z,1.10
2019-01-31T15:18:33.880Z,1.10
2019-01-31T15:21:04.024Z,1.10
2019-01-31T15:23:34.114Z,1.10
2019-01-31T15:26:04.310Z,1.20
2019-01-31T15:28:34.482Z,1.10
2019-01-31T15:31:04.650Z,1.10
2019-01-31T15:33:34.846Z,1.10
2019-01-31T15:36:05.098Z,1.10
2019-01-31T15:38:35.448Z,1.10
2019-01-31T15:41:05.783Z,1.10
2019-01-31T15:43:36.195Z,1.10
2019-01-31T15:46:06.458Z,1.10
2019-01-31T15:48:36.710Z,1.10
2019-01-31T15:51:07.346Z,1.10
2019-01-31T15:53:37.541Z,1.10
2019-01-31T15:56:09.083Z,1.10
2019-01-31T15:58:39.284Z,1.10
2019-01-31T16:01:12.054Z,1.10
2019-01-31T16:03:42.219Z,1.10
2019-01-31T16:06:12.428Z,1.10
2019-01-31T16:08:42.605Z,1.10
2019-01-31T16:11:13.154Z,1.10
2019-01-31T16:13:43.907Z,1.10
2019-01-31T16:16:14.062Z,1.10
2019-01-31T16:18:44.421Z,1.10
2019-01-31T16:21:14.656Z,1.10
2019-01-31T16:23:45.002Z,1.10
2019-01-31T16:26:15.080Z,1.10
2019-01-31T16:28:45.264Z,1.10
2019-01-31T16:31:15.377Z,1.10
2019-01-31T16:33:45.578Z,1.10
2019-01-31T16:36:15.852Z,1.10
2019-01-31T16:38:46.162Z,1.10
2019-01-31T16:41:17.404Z,1.10
2019-01-31T16:43:47.789Z,1.10
2019-01-31T16:46:18.077Z,1.10
2019-01-31T16:48:48.362Z,1.00
2019-01-31T16:51:18.563Z,1.00
2019-01-31T16:53:48.771Z,1.10
2019-01-31T16:56:19.059Z,1.10
2019-01-31T16:58:49.326Z,1.10
2019-01-31T17:01:19.503Z,1.10
2019-01-31T17:03:49.679Z,1.00
2019-01-31T17:06:19.938Z,1.00
2019-01-31T17:08:50.778Z,1.00
2019-01-31T17:11:21.168Z,1.00
2019-01-31T17:13:51.435Z,1.00
2019-01-31T17:16:21.697Z,1.00
2019-01-31T17:18:54.683Z,1.00
2019-01-31T17:21:23.874Z,1.00
2019-01-31T17:23:53.945Z,1.00
2019-01-31T17:26:24.593Z,1.00
2019-01-31T17:28:54.660Z,0.90
2019-01-31T17:31:24.893Z,0.90
2019-01-31T17:33:55.162Z,0.90
2019-01-31T17:36:30.465Z,0.90
2019-01-31T17:39:00.748Z,0.90
2019-01-31T17:41:33.123Z,0.80
2019-01-31T17:44:03.427Z,0.80
2019-01-31T17:46:33.766Z,0.80
2019-01-31T17:49:04.998Z,0.80
2019-01-31T17:51:35.506Z,0.80
2019-01-31T17:54:09.169Z,0.90
2019-01-31T17:56:39.486Z,0.90
2019-01-31T17:59:09.700Z,0.90
2019-01-31T18:01:39.910Z,0.90
2019-01-31T18:04:10.126Z,0.90
2019-01-31T18:06:44.917Z,0.90
2019-01-31T18:09:15.131Z,1.00
2019-01-31T18:11:45.356Z,1.00
2019-01-31T18:14:15.550Z,1.10
2019-01-31T18:16:45.907Z,1.10
2019-01-31T18:19:19.367Z,1.10
2019-01-31T18:21:49.662Z,1.00
2019-01-31T18:24:20.024Z,1.00
2019-01-31T18:26:50.391Z,0.90
2019-01-31T18:29:20.783Z,0.90
2019-01-31T18:31:50.987Z,0.90
2019-01-31T18:34:21.275Z,0.90
2019-01-31T18:36:51.442Z,0.90
2019-01-31T18:39:21.783Z,0.90
2019-01-31T18:41:51.925Z,0.90
2019-01-31T18:44:22.053Z,0.90
2019-01-31T18:46:53.505Z,0.90
2019-01-31T18:49:24.148Z,0.80
2019-01-31T18:51:54.331Z,0.90
2019-01-31T18:54:24.610Z,0.80
2019-01-31T18:56:54.922Z,0.90
2019-01-31T18:59:25.169Z,0.80
2019-01-31T19:01:55.346Z,0.90
2019-01-31T19:04:25.736Z,0.90
2019-01-31T19:06:56.135Z,0.90
2019-01-31T19:09:26.481Z,0.90
2019-01-31T19:11:57.165Z,0.90
2019-01-31T19:14:27.303Z,0.90
2019-01-31T19:16:57.543Z,0.90
2019-01-31T19:19:27.774Z,0.80
2019-01-31T19:21:57.958Z,0.80
2019-01-31T19:24:28.256Z,0.90
2019-01-31T19:26:58.550Z,1.00
2019-01-31T19:29:29.098Z,1.10
2019-01-31T19:31:59.319Z,1.10
2019-01-31T19:34:29.646Z,1.10
2019-01-31T19:37:00.019Z,1.00
2019-01-31T19:39:33.541Z,1.00
2019-01-31T19:42:02.179Z,1.00
2019-01-31T19:44:32.408Z,1.00
2019-01-31T19:47:04.952Z,0.90
2019-01-31T19:49:35.283Z,0.90
2019-01-31T19:52:05.950Z,0.90
2019-01-31T19:54:37.329Z,0.80
2019-01-31T19:57:07.761Z,0.80
2019-01-31T19:59:37.937Z,0.80
2019-01-31T20:02:08.175Z,0.90
2019-01-31T20:04:39.341Z,0.90
2019-01-31T20:07:09.579Z,1.00
2019-01-31T20:09:39.848Z,1.00
2019-01-31T20:12:10.139Z,0.90
2019-01-31T20:14:40.316Z,0.90
2019-01-31T20:17:10.580Z,0.90
2019-01-31T20:19:40.845Z,0.90
2019-01-31T20:22:11.234Z,0.90
2019-01-31T20:24:41.481Z,0.90
2019-01-31T20:27:13.275Z,0.90
2019-01-31T20:29:43.753Z,0.90
2019-01-31T20:32:14.132Z,0.90
2019-01-31T20:34:44.397Z,1.00
2019-01-31T20:37:14.694Z,1.00
2019-01-31T20:39:45.009Z,0.90
2019-01-31T20:42:16.571Z,0.90
2019-01-31T20:44:46.831Z,0.90
2019-01-31T20:47:17.142Z,0.90
2019-01-31T20:49:47.539Z,1.00
2019-01-31T20:52:17.787Z,1.00
2019-01-31T20:54:50.334Z,1.00
2019-01-31T20:57:20.729Z,1.00
2019-01-31T20:59:51.131Z,0.90
2019-01-31T21:02:21.966Z,0.90
2019-01-31T21:04:52.133Z,0.90
2019-01-31T21:07:22.414Z,1.00
2019-01-31T21:09:52.711Z,1.00
2019-01-31T21:12:22.922Z,1.00
2019-01-31T21:14:53.082Z,1.00
2019-01-31T21:17:23.190Z,1.00
2019-01-31T21:19:53.403Z,1.00
2019-01-31T21:22:23.531Z,1.00
2019-01-31T21:24:53.842Z,1.00
2019-01-31T21:27:23.906Z,1.10
2019-01-31T21:29:53.978Z,1.10
2019-01-31T21:32:24.185Z,1.00
2019-01-31T21:34:54.282Z,1.10
2019-01-31T21:37:24.399Z,1.00
2019-01-31T21:39:54.602Z,1.00
2019-01-31T21:42:24.958Z,1.00
2019-01-31T21:44:55.109Z,1.00
2019-01-31T21:47:25.332Z,1.00
2019-01-31T21:49:55.583Z,1.00
2019-01-31T21:52:25.846Z,1.00
2019-01-31T21:54:56.037Z,1.00
2019-01-31T21:57:26.217Z,1.00
2019-01-31T21:59:56.402Z,0.90
2019-01-31T22:02:26.558Z,1.00
2019-01-31T22:04:56.823Z,1.00
2019-01-31T22:07:27.161Z,0.90
2019-01-31T22:09:57.425Z,0.90
2019-01-31T22:12:27.860Z,0.90
2019-01-31T22:14:58.095Z,0.90
2019-01-31T22:17:30.122Z,0.90
2019-01-31T22:20:00.204Z,0.90
2019-01-31T22:22:30.578Z,0.80
2019-01-31T22:25:00.755Z,0.80
2019-01-31T22:27:30.950Z,0.80
2019-01-31T22:30:01.167Z,0.80
2019-01-31T22:32:33.124Z,0.80
2019-01-31T22:35:03.429Z,0.80
2019-01-31T22:37:34.260Z,0.80
2019-01-31T22:40:05.651Z,0.70
2019-01-31T22:42:35.916Z,0.70
2019-01-31T22:45:07.756Z,0.70
2019-01-31T22:47:37.830Z,0.60
2019-01-31T22:50:09.474Z,0.60
2019-01-31T22:52:39.635Z,0.60
2019-01-31T22:55:10.558Z,0.60
2019-01-31T22:57:40.745Z,0.60
2019-01-31T23:00:20.235Z,0.60
2019-01-31T23:02:51.821Z,0.60
2019-01-31T23:05:22.010Z,0.60
2019-01-31T23:07:52.109Z,0.60
2019-01-31T23:10:22.334Z,0.60
2019-01-31T23:12:52.689Z,0.60
2019-01-31T23:15:22.942Z,0.60
2019-01-31T23:17:53.074Z,0.50
2019-01-31T23:20:23.226Z,0.50
2019-01-31T23:22:53.370Z,0.50
2019-01-31T23:25:23.556Z,0.50
2019-01-31T23:27:53.682Z,0.50
2019-01-31T23:30:24.033Z,0.50
2019-01-31T23:32:54.358Z,0.50
2019-01-31T23:35:25.565Z,0.50
2019-01-31T23:37:55.764Z,0.50
2019-01-31T23:40:26.006Z,0.50
2019-01-31T23:42:56.228Z,0.50
2019-01-31T23:45:26.347Z,0.50
2019-01-31T23:47:56.635Z,0.40
2019-01-31T23:50:26.878Z,0.40
2019-01-31T23:52:57.307Z,0.40
2019-01-31T23:55:27.566Z,0.40
2019-01-31T23:57:57.682Z,0.30
